Time;durP1;ratioP1;P1;durP2;ratioP2;P2;SDS_P1;SDS_P2;PMS_P1;PMS_P2;Temp;Humidity;BMP_temperature;BMP_pressure;BME280_temperature;BME280_humidity;BME280_pressure;Samples;Min_cycle;Max_cycle;Signal;HPM_P1;HPM_P2
2024/01/06 00:00:45;;;;;;;7.13;1.50;;;;;;;4.90;84.40;94361.56;5021698;28;20217;-77
2024/01/06 00:03:11;;;;;;;4.50;1.53;;;;;;;4.82;84.79;94365.63;5018288;28;20187;-77
2024/01/06 00:05:36;;;;;;;3.60;1.53;;;;;;;4.86;84.36;94357.63;5015245;28;20230;-77
2024/01/06 00:08:01;;;;;;;4.40;1.50;;;;;;;4.79;84.75;94349.69;5005005;28;20226;-77
2024/01/06 00:10:27;;;;;;;6.17;1.70;;;;;;;4.83;84.46;94351.81;5003314;28;20198;-77
2024/01/06 00:12:52;;;;;;;4.10;1.57;;;;;;;4.86;84.69;94357.63;4993709;28;20221;-77
2024/01/06 00:15:17;;;;;;;4.73;1.67;;;;;;;4.82;84.51;94355.34;5014523;28;20191;-77
2024/01/06 00:17:43;;;;;;;3.57;1.73;;;;;;;4.74;84.94;94350.09;5018912;28;20227;-77
2024/01/06 00:20:08;;;;;;;6.60;2.17;;;;;;;4.76;84.79;94360.25;5017369;28;20671;-77
2024/01/06 00:22:35;;;;;;;2.93;1.43;;;;;;;4.81;84.77;94358.06;5018134;28;20190;-77
2024/01/06 00:25:00;;;;;;;5.00;1.93;;;;;;;4.82;84.54;94357.91;5014937;28;20649;-77
2024/01/06 00:27:25;;;;;;;6.40;1.83;;;;;;;4.84;84.42;94350.88;5003812;28;20216;-77
2024/01/06 00:29:51;;;;;;;4.40;2.00;;;;;;;4.78;84.42;94356.59;5014089;28;20191;-77
2024/01/06 00:32:16;;;;;;;5.53;1.87;;;;;;;4.75;84.32;94358.63;4999467;28;20186;-77
2024/01/06 00:34:42;;;;;;;2.73;1.70;;;;;;;4.68;84.72;94362.69;5011202;28;20195;-77
2024/01/06 00:37:07;;;;;;;4.00;1.50;;;;;;;4.77;84.39;94356.72;5016481;28;20202;-78
2024/01/06 00:39:32;;;;;;;5.30;2.00;;;;;;;4.76;84.40;94355.09;4995537;28;20225;-76
2024/01/06 00:41:58;;;;;;;5.93;2.30;;;;;;;4.68;84.50;94353.25;5014344;28;20799;-77
2024/01/06 00:44:23;;;;;;;6.43;2.17;;;;;;;4.73;84.44;94358.78;5017540;28;20179;-77
2024/01/06 00:46:49;;;;;;;3.70;1.93;;;;;;;4.78;84.07;94363.50;5017639;28;20186;-77
2024/01/06 00:49:14;;;;;;;7.27;1.90;;;;;;;4.74;84.21;94362.16;5014570;28;20202;-77
2024/01/06 00:51:39;;;;;;;4.70;1.97;;;;;;;4.78;83.95;94373.78;4997393;28;20186;-77
2024/01/06 00:54:05;;;;;;;7.00;2.30;;;;;;;4.63;84.26;94364.91;5014269;28;20186;-77
2024/01/06 00:56:30;;;;;;;3.27;1.80;;;;;;;4.70;84.25;94374.50;5016690;28;20208;-77
2024/01/06 00:58:55;;;;;;;5.40;1.90;;;;;;;4.65;84.10;94368.94;5014202;28;20211;-77
2024/01/06 01:01:21;;;;;;;6.07;2.23;;;;;;;4.72;83.66;94382.88;5002379;28;20183;-77
2024/01/06 01:03:46;;;;;;;5.20;2.40;;;;;;;4.73;83.71;94379.34;5016592;28;20191;-77
2024/01/06 01:06:12;;;;;;;7.47;2.20;;;;;;;4.65;83.94;94383.56;5014915;28;20550;-77
2024/01/06 01:08:37;;;;;;;5.97;2.50;;;;;;;4.67;83.74;94397.09;5014269;28;20621;-77
2024/01/06 01:11:02;;;;;;;5.13;2.20;;;;;;;4.64;83.77;94393.03;5011316;28;20195;-77
2024/01/06 01:13:28;;;;;;;5.87;2.10;;;;;;;4.63;83.72;94391.44;4998989;28;20193;-77
2024/01/06 01:15:53;;;;;;;5.77;1.77;;;;;;;4.62;84.00;94389.81;4998050;28;20182;-77
2024/01/06 01:18:19;;;;;;;3.87;2.13;;;;;;;4.67;83.63;94390.19;5018176;28;20309;-77
2024/01/06 01:20:44;;;;;;;8.03;2.37;;;;;;;4.65;83.78;94384.38;4997380;28;20222;-77
2024/01/06 01:23:09;;;;;;;6.57;1.60;;;;;;;4.57;84.00;94393.72;5016812;28;20178;-77
2024/01/06 01:25:35;;;;;;;4.87;1.90;;;;;;;4.57;83.97;94402.25;5016850;28;20232;-77
2024/01/06 01:28:00;;;;;;;9.03;2.00;;;;;;;4.58;83.91;94401.31;5001161;28;20896;-77
2024/01/06 01:30:25;;;;;;;3.13;1.90;;;;;;;4.59;83.61;94404.69;4999259;28;20572;-77
2024/01/06 01:32:51;;;;;;;4.93;2.00;;;;;;;4.64;83.30;94412.81;5014922;28;20193;-77
2024/01/06 01:35:16;;;;;;;4.53;2.00;;;;;;;4.58;83.30;94409.03;4997087;28;20183;-77
2024/01/06 01:37:42;;;;;;;7.13;2.30;;;;;;;4.60;83.15;94416.63;5017405;28;20215;-77
2024/01/06 01:40:08;;;;;;;14.60;2.93;;;;;;;4.49;83.08;94420.13;5013077;28;20207;-77
2024/01/06 01:42:33;;;;;;;4.83;2.50;;;;;;;4.64;83.01;94423.09;5015694;28;20785;-77
2024/01/06 01:44:59;;;;;;;4.20;2.50;;;;;;;4.58;82.80;94433.91;4998256;28;20191;-77
2024/01/06 01:47:24;;;;;;;8.87;2.43;;;;;;;4.59;82.75;94427.81;5017862;28;20293;-77
2024/01/06 01:49:49;;;;;;;4.60;1.90;;;;;;;4.63;82.46;94437.72;4997337;28;20186;-77
2024/01/06 01:52:15;;;;;;;5.47;2.07;;;;;;;4.61;82.75;94444.75;5016366;28;20179;-77
2024/01/06 01:54:41;;;;;;;7.20;2.20;;;;;;;4.65;82.55;94440.13;4997905;28;20668;-77
2024/01/06 01:57:06;;;;;;;6.53;2.27;;;;;;;4.54;82.35;94430.81;5016483;28;20269;-77
2024/01/06 01:59:32;;;;;;;5.27;2.23;;;;;;;4.47;82.82;94437.47;4997442;28;20187;-77
2024/01/06 02:01:57;;;;;;;3.97;1.77;;;;;;;4.48;82.66;94444.22;5015525;28;20193;-77
2024/01/06 02:04:22;;;;;;;4.03;1.93;;;;;;;4.49;82.25;94443.28;5017774;28;20189;-77
2024/01/06 02:06:48;;;;;;;6.57;2.50;;;;;;;4.52;82.05;94445.59;5018388;28;20185;-77
2024/01/06 02:09:13;;;;;;;3.90;2.10;;;;;;;4.46;81.84;94444.38;5017728;28;20215;-77
2024/01/06 02:11:38;;;;;;;4.30;1.90;;;;;;;4.58;81.92;94445.00;5000235;28;20193;-77
2024/01/06 02:14:04;;;;;;;9.57;1.87;;;;;;;4.66;81.48;94452.84;5017255;28;20224;-77
2024/01/06 02:16:29;;;;;;;7.33;1.87;;;;;;;4.69;81.45;94444.88;5017739;28;20187;-77
2024/01/06 02:18:55;;;;;;;11.37;3.63;;;;;;;4.40;82.10;94457.75;5019029;28;20558;-77
2024/01/06 02:21:22;;;;;;;7.70;2.67;;;;;;;4.48;81.95;94457.06;5020483;28;20194;-77
2024/01/06 02:23:48;;;;;;;9.40;2.73;;;;;;;4.49;81.75;94458.69;5002786;28;20206;-77
2024/01/06 02:26:14;;;;;;;6.77;2.00;;;;;;;4.45;82.04;94465.88;5020404;28;20185;-77
2024/01/06 02:28:40;;;;;;;5.40;1.83;;;;;;;4.41;82.14;94458.56;5020319;28;20195;-77
2024/01/06 02:31:06;;;;;;;2.17;1.70;;;;;;;4.45;81.64;94470.22;5018043;28;20453;-77
2024/01/06 02:33:31;;;;;;;5.10;1.63;;;;;;;4.39;82.09;94465.59;5016979;28;20214;-77
2024/01/06 02:35:56;;;;;;;4.10;1.70;;;;;;;4.46;81.50;94464.13;5003601;28;20189;-77
2024/01/06 02:38:22;;;;;;;5.43;1.93;;;;;;;4.45;81.29;94465.88;5003032;28;20844;-78
2024/01/06 02:40:47;;;;;;;3.80;2.00;;;;;;;4.41;81.39;94456.00;5000030;28;20221;-77
2024/01/06 02:43:12;;;;;;;2.80;2.00;;;;;;;4.39;81.77;94453.56;5017234;28;20527;-77
2024/01/06 02:45:38;;;;;;;4.97;2.00;;;;;;;4.37;81.78;94460.59;5018981;28;20188;-77
2024/01/06 02:48:03;;;;;;;3.70;2.07;;;;;;;4.32;82.30;94460.19;5018005;28;20230;-77
2024/01/06 02:50:29;;;;;;;8.57;2.03;;;;;;;4.26;82.31;94466.72;5017401;28;20252;-77
2024/01/06 02:52:54;;;;;;;9.80;2.97;;;;;;;4.26;82.49;94471.84;5021175;28;20198;-77
2024/01/06 02:55:19;;;;;;;3.80;1.70;;;;;;;4.23;82.72;94468.72;5002832;28;20194;-77
2024/01/06 02:57:45;;;;;;;4.77;1.63;;;;;;;4.27;82.34;94467.53;5018406;28;20211;-77
2024/01/06 03:00:11;;;;;;;3.20;1.83;;;;;;;4.17;82.97;94464.94;5000322;28;20210;-77
2024/01/06 03:02:37;;;;;;;3.70;1.77;;;;;;;4.24;82.42;94463.47;5022052;28;20196;-77
2024/01/06 03:05:03;;;;;;;1.93;1.40;;;;;;;4.12;82.49;94461.97;5017626;28;20770;-77
2024/01/06 03:07:28;;;;;;;2.60;1.50;;;;;;;4.23;82.48;94464.38;5017998;28;20204;-77
2024/01/06 03:09:53;;;;;;;5.57;1.63;;;;;;;4.14;82.51;94472.91;5016012;28;20187;-77
2024/01/06 03:12:19;;;;;;;3.20;1.70;;;;;;;4.20;82.52;94472.38;5000720;28;20185;-77
2024/01/06 03:14:44;;;;;;;4.77;1.63;;;;;;;4.34;82.07;94472.94;5016187;28;20665;-77
2024/01/06 03:17:12;;;;;;;5.23;1.90;;;;;;;4.28;81.79;94471.72;5016198;28;20241;-77
2024/01/06 03:19:39;;;;;;;3.47;1.90;;;;;;;4.30;81.81;94471.56;5001919;28;20187;-77
2024/01/06 03:22:04;;;;;;;6.07;1.77;;;;;;;4.30;82.04;94479.28;5019880;28;20187;-78
2024/01/06 03:24:31;;;;;;;5.63;1.40;;;;;;;4.34;81.84;94475.50;5000064;28;20280;-77
2024/01/06 03:26:56;;;;;;;5.17;1.70;;;;;;;4.26;82.35;94473.59;5018064;28;20545;-77
2024/01/06 03:29:21;;;;;;;4.40;1.97;;;;;;;4.26;81.85;94465.91;5018752;28;20198;-77
2024/01/06 03:31:47;;;;;;;3.20;1.70;;;;;;;4.34;81.84;94481.47;4999804;28;20253;-77
2024/01/06 03:34:12;;;;;;;5.50;2.73;;;;;;;4.30;82.30;94472.38;5017009;28;20193;-77
2024/01/06 03:36:38;;;;;;;4.73;2.07;;;;;;;4.22;82.93;94467.09;5015607;28;20229;-77
2024/01/06 03:39:04;;;;;;;4.67;2.00;;;;;;;4.28;82.36;94463.19;5017720;28;20218;-77
2024/01/06 03:41:29;;;;;;;8.73;2.97;;;;;;;4.21;82.60;94463.72;5014930;28;20179;-77
2024/01/06 03:43:54;;;;;;;9.70;3.37;;;;;;;4.33;82.05;94464.41;4999684;28;20230;-77
2024/01/06 03:46:20;;;;;;;9.30;3.37;;;;;;;4.40;82.02;94469.78;5001174;28;20195;-77
2024/01/06 03:48:45;;;;;;;6.73;3.30;;;;;;;4.23;82.92;94472.09;5018307;28;20203;-77
2024/01/06 03:51:12;;;;;;;8.17;2.70;;;;;;;4.24;83.08;94460.91;5000221;28;20241;-77
2024/01/06 03:53:37;;;;;;;9.83;3.37;;;;;;;4.22;82.93;94456.81;5018818;28;20190;-77
2024/01/06 03:56:04;;;;;;;8.67;3.37;;;;;;;4.19;83.05;94455.34;5016813;28;20675;-77
2024/01/06 03:58:29;;;;;;;4.37;2.60;;;;;;;4.18;82.86;94458.88;5019034;28;20246;-77
2024/01/06 04:00:54;;;;;;;6.17;2.43;;;;;;;4.12;83.25;94464.53;5018520;28;20213;-77
2024/01/06 04:03:20;;;;;;;7.00;2.67;;;;;;;4.17;83.12;94461.56;5002482;28;20191;-77
2024/01/06 04:05:45;;;;;;;5.67;1.90;;;;;;;4.05;83.51;94462.63;5000215;28;20582;-77
2024/01/06 04:08:10;;;;;;;3.93;2.10;;;;;;;4.03;83.88;94467.91;5015523;28;20572;-77
2024/01/06 04:10:36;;;;;;;3.90;2.30;;;;;;;4.04;84.05;94466.97;5014135;28;20217;-77
2024/01/06 04:13:01;;;;;;;6.80;2.07;;;;;;;4.20;83.24;94471.56;5016109;28;20179;-77
2024/01/06 04:15:26;;;;;;;6.53;2.50;;;;;;;4.12;83.64;94456.00;5016741;28;20210;-77
2024/01/06 04:17:52;;;;;;;5.60;2.10;;;;;;;4.18;83.43;94460.63;5000632;28;20322;-77
2024/01/06 04:20:18;;;;;;;4.20;1.97;;;;;;;4.19;83.27;94459.66;5017811;28;20621;-77
2024/01/06 04:22:44;;;;;;;3.80;1.97;;;;;;;4.19;83.43;94463.06;5018862;28;20190;-77
2024/01/06 04:25:10;;;;;;;3.43;1.80;;;;;;;4.24;83.62;94460.06;5015896;28;20187;-77
2024/01/06 04:27:35;;;;;;;4.57;1.83;;;;;;;4.22;83.46;94461.97;5017856;28;20203;-77
2024/01/06 04:30:00;;;;;;;5.53;2.00;;;;;;;4.23;83.61;94461.00;4999992;28;20183;-77
2024/01/06 04:32:26;;;;;;;5.10;2.30;;;;;;;4.13;84.20;94452.50;5001734;28;20198;-77
2024/01/06 04:34:51;;;;;;;5.33;2.03;;;;;;;4.26;83.41;94456.44;5014325;28;20688;-77
2024/01/06 04:37:16;;;;;;;4.63;1.90;;;;;;;4.23;83.58;94463.56;5005355;28;20206;-77
2024/01/06 04:39:42;;;;;;;6.90;2.10;;;;;;;4.22;83.59;94470.47;5016479;28;20706;-77
2024/01/06 04:42:07;;;;;;;6.07;2.13;;;;;;;4.05;84.26;94463.44;4999240;28;20924;-77
2024/01/06 04:44:33;;;;;;;4.30;1.93;;;;;;;4.16;83.67;94465.91;5014610;28;20205;-76
2024/01/06 04:46:58;;;;;;;4.30;2.27;;;;;;;4.11;84.17;94468.06;5017733;28;20198;-77
2024/01/06 04:49:23;;;;;;;9.50;2.20;;;;;;;4.00;84.55;94470.75;5016718;28;20191;-77
2024/01/06 04:51:49;;;;;;;5.13;2.80;;;;;;;4.22;84.27;94477.38;5015921;28;20182;-77
2024/01/06 04:54:14;;;;;;;4.70;2.20;;;;;;;4.34;83.55;94481.47;5018056;28;20188;-78
2024/01/06 04:56:39;;;;;;;4.33;2.40;;;;;;;4.20;84.68;94479.28;5017086;28;20289;-77
2024/01/06 04:59:05;;;;;;;6.07;2.70;;;;;;;4.18;84.95;94478.59;5016393;28;20214;-77
2024/01/06 05:01:31;;;;;;;3.43;3.00;;;;;;;4.27;84.38;94477.78;5016107;28;20216;-77
2024/01/06 05:03:56;;;;;;;4.63;2.70;;;;;;;4.06;85.15;94470.19;5012426;28;20671;-77
2024/01/06 05:06:23;;;;;;;2.87;2.57;;;;;;;4.15;84.65;94479.69;5016651;28;20265;-77
2024/01/06 05:08:48;;;;;;;6.43;2.53;;;;;;;4.22;84.50;94479.94;5013790;28;20259;-77
2024/01/06 05:11:13;;;;;;;2.87;2.30;;;;;;;4.22;84.71;94477.38;5011682;28;20195;-77
2024/01/06 05:13:39;;;;;;;5.87;2.70;;;;;;;4.30;84.88;94476.72;5017452;28;20187;-77
2024/01/06 05:16:04;;;;;;;5.67;2.70;;;;;;;4.21;84.79;94474.00;4998680;28;20238;-77
2024/01/06 05:18:30;;;;;;;2.73;2.43;;;;;;;4.18;84.87;94481.19;4999742;28;20277;-78
2024/01/06 05:20:55;;;;;;;5.40;2.70;;;;;;;4.25;84.76;94475.38;5016798;28;20270;-76
2024/01/06 05:23:20;;;;;;;7.23;2.97;;;;;;;4.10;85.42;94475.91;5001698;28;20202;-77
2024/01/06 05:25:46;;;;;;;4.67;2.60;;;;;;;4.18;84.45;94479.41;5014309;28;20281;-77
2024/01/06 05:28:11;;;;;;;8.60;2.47;;;;;;;4.19;84.38;94483.59;5016294;28;20210;-77
2024/01/06 05:30:37;;;;;;;2.70;2.43;;;;;;;4.10;84.36;94491.31;5015039;28;20189;-77
2024/01/06 05:33:03;;;;;;;6.50;2.60;;;;;;;4.18;83.89;94483.75;5015229;28;20218;-77
2024/01/06 05:35:28;;;;;;;3.67;2.50;;;;;;;4.12;84.61;94486.84;5014496;28;20661;-77
2024/01/06 05:37:54;;;;;;;5.13;2.43;;;;;;;4.14;83.69;94492.66;5022533;28;20249;-77
2024/01/06 05:40:19;;;;;;;4.37;2.27;;;;;;;4.13;83.92;94486.72;5018289;28;20284;-77
2024/01/06 05:42:45;;;;;;;2.63;2.17;;;;;;;3.90;84.19;94481.03;5017831;28;20243;-77
2024/01/06 05:45:12;;;;;;;2.10;1.90;;;;;;;3.92;84.28;94479.13;5019358;28;20255;-77
2024/01/06 05:47:37;;;;;;;2.73;1.70;;;;;;;3.99;83.60;94492.25;5020094;28;20694;-77
2024/01/06 05:50:03;;;;;;;1.90;1.80;;;;;;;3.97;83.29;94499.25;5019368;28;20182;-77
2024/01/06 05:52:28;;;;;;;3.53;2.00;;;;;;;3.92;83.22;94499.66;5019326;28;20200;-77
2024/01/06 05:54:54;;;;;;;2.10;1.90;;;;;;;4.04;83.19;94497.78;5019065;28;20175;-77
2024/01/06 05:57:19;;;;;;;1.67;1.57;;;;;;;3.99;83.13;94510.22;5003613;28;20211;-77
2024/01/06 05:59:44;;;;;;;2.20;1.60;;;;;;;4.01;82.81;94512.66;5000526;28;20183;-77
2024/01/06 06:02:10;;;;;;;4.13;2.10;;;;;;;3.99;83.18;94517.94;5003460;28;20556;-77
2024/01/06 06:04:35;;;;;;;3.80;1.77;;;;;;;4.11;82.46;94524.56;5018873;28;20305;-77
2024/01/06 06:07:02;;;;;;;4.00;1.83;;;;;;;3.99;83.24;94523.09;5016211;28;20233;-77
2024/01/06 06:09:28;;;;;;;3.37;1.87;;;;;;;4.07;82.40;94527.56;5018533;28;20277;-77
2024/01/06 06:11:54;;;;;;;4.67;1.83;;;;;;;4.21;82.09;94524.59;5019781;28;20193;-77
2024/01/06 06:14:19;;;;;;;3.10;1.90;;;;;;;4.10;81.94;94528.09;5021724;28;20274;-77
2024/01/06 06:16:44;;;;;;;2.03;1.73;;;;;;;4.19;82.08;94529.88;5000799;28;20214;-76
2024/01/06 06:19:10;;;;;;;4.20;2.73;;;;;;;4.21;81.91;94533.09;5018822;28;20671;-77
2024/01/06 06:21:35;;;;;;;4.83;1.97;;;;;;;4.12;81.83;94531.34;5019092;28;20269;-77
2024/01/06 06:24:00;;;;;;;3.60;2.23;;;;;;;4.05;81.39;94539.69;5018131;28;20272;-77
2024/01/06 06:26:28;;;;;;;2.10;1.90;;;;;;;4.19;81.18;94542.72;5020104;28;20200;-77
2024/01/06 06:28:53;;;;;;;2.00;1.80;;;;;;;4.11;81.38;94534.03;5020580;28;20286;-77
2024/01/06 06:31:19;;;;;;;2.57;1.60;;;;;;;3.95;80.89;94542.25;5019823;28;20225;-77
2024/01/06 06:33:44;;;;;;;1.70;1.60;;;;;;;4.15;80.52;94549.06;5017264;28;20730;-77
2024/01/06 06:36:10;;;;;;;3.67;1.70;;;;;;;3.96;80.90;94552.38;5016212;28;20486;-77
2024/01/06 06:38:35;;;;;;;1.33;1.23;;;;;;;3.89;80.89;94556.44;5019918;28;20244;-77
2024/01/06 06:41:01;;;;;;;3.70;1.80;;;;;;;3.90;80.80;94563.22;5017361;28;20561;-77
2024/01/06 06:43:26;;;;;;;1.60;1.30;;;;;;;4.04;80.34;94563.78;5017632;28;20217;-77
2024/01/06 06:45:51;;;;;;;2.97;1.47;;;;;;;4.07;80.15;94563.53;5000884;28;20211;-77
2024/01/06 06:48:17;;;;;;;3.40;1.53;;;;;;;3.89;80.61;94565.91;5019648;28;20692;-77
2024/01/06 06:50:42;;;;;;;1.17;1.07;;;;;;;4.09;80.06;94575.28;5016730;28;20567;-77
2024/01/06 06:53:08;;;;;;;1.83;1.43;;;;;;;3.96;80.42;94570.38;5018878;28;20719;-77
2024/01/06 06:55:33;;;;;;;2.47;1.20;;;;;;;3.85;80.14;94579.94;5018428;28;20193;-77
2024/01/06 06:57:58;;;;;;;2.73;1.30;;;;;;;4.07;79.63;94581.50;5018722;28;20211;-77
2024/01/06 07:00:24;;;;;;;1.83;1.47;;;;;;;4.08;79.50;94593.41;5016258;28;20199;-77
2024/01/06 07:02:50;;;;;;;1.73;1.50;;;;;;;4.16;79.38;94586.66;5019052;28;20316;-77
2024/01/06 07:05:15;;;;;;;4.53;1.53;;;;;;;4.16;79.71;94584.09;5012665;28;20191;-77
2024/01/06 07:07:40;;;;;;;2.23;1.50;;;;;;;4.13;79.89;94583.53;5015113;28;20280;-77
2024/01/06 07:10:07;;;;;;;1.60;1.40;;;;;;;4.15;79.29;94584.22;5028113;28;20681;-77
2024/01/06 07:12:32;;;;;;;2.77;1.80;;;;;;;4.15;79.38;94590.19;5004626;28;20702;-77
2024/01/06 07:15:00;;;;;;;1.63;1.20;;;;;;;4.14;79.51;94593.66;5001419;28;20288;-77
2024/01/06 07:17:26;;;;;;;2.53;1.60;;;;;;;3.97;80.00;94596.88;5000165;28;20222;-77
2024/01/06 07:19:51;;;;;;;1.27;0.97;;;;;;;4.07;79.65;94595.16;5019402;28;20186;-77
2024/01/06 07:22:18;;;;;;;2.53;1.57;;;;;;;4.06;79.65;94597.84;5019396;28;20183;-77
2024/01/06 07:24:43;;;;;;;2.00;1.30;;;;;;;4.18;79.13;94600.19;5017805;28;20286;-77
2024/01/06 07:27:09;;;;;;;1.43;1.20;;;;;;;3.94;79.64;94607.41;4999793;28;20220;-77
2024/01/06 07:29:34;;;;;;;2.83;1.60;;;;;;;4.00;79.91;94596.63;5018746;28;20245;-77
2024/01/06 07:31:59;;;;;;;4.57;1.63;;;;;;;4.24;79.47;94591.13;5017126;28;20195;-76
2024/01/06 07:34:25;;;;;;;3.30;1.80;;;;;;;4.19;79.36;94598.44;5016833;28;20187;-77
2024/01/06 07:36:50;;;;;;;6.13;2.17;;;;;;;4.10;79.94;94592.31;5015007;28;20245;-79
2024/01/06 07:39:16;;;;;;;3.63;2.10;;;;;;;4.06;80.07;94608.13;5017362;28;20222;-77
2024/01/06 07:41:42;;;;;;;4.07;2.33;;;;;;;4.38;79.59;94607.94;5016307;28;20191;-77
2024/01/06 07:44:07;;;;;;;3.73;2.40;;;;;;;4.24;79.95;94617.66;5015960;28;20740;-77
2024/01/06 07:46:33;;;;;;;3.33;2.10;;;;;;;4.39;79.70;94619.84;5019457;28;20275;-77
2024/01/06 07:48:58;;;;;;;1.73;1.63;;;;;;;4.45;79.50;94620.13;5019393;28;20217;-77
2024/01/06 07:51:24;;;;;;;6.73;1.70;;;;;;;4.31;80.59;94617.91;5017989;28;20193;-77
2024/01/06 07:53:50;;;;;;;2.50;1.83;;;;;;;4.19;80.74;94614.66;5017732;28;20175;-77
2024/01/06 07:56:16;;;;;;;2.90;1.40;;;;;;;4.45;80.32;94624.47;5000763;28;20182;-78
2024/01/06 07:58:42;;;;;;;2.00;1.80;;;;;;;4.47;79.71;94614.84;5001438;28;20207;-77
2024/01/06 08:01:07;;;;;;;1.60;1.50;;;;;;;4.25;80.45;94623.63;5016513;28;20193;-77
2024/01/06 08:03:32;;;;;;;2.07;1.67;;;;;;;4.25;81.20;94624.44;5021018;28;20193;-78
2024/01/06 08:05:58;;;;;;;7.63;4.30;;;;;;;4.44;80.73;94627.97;4999536;28;20270;-77
2024/01/06 08:08:23;;;;;;;4.77;3.10;;;;;;;4.41;80.69;94623.91;5017577;28;20286;-77
2024/01/06 08:10:48;;;;;;;3.57;2.20;;;;;;;4.52;80.42;94633.28;4999202;28;20241;-78
2024/01/06 08:13:14;;;;;;;2.67;1.90;;;;;;;4.54;80.39;94631.38;5020299;28;20259;-77
2024/01/06 08:15:40;;;;;;;4.27;2.43;;;;;;;4.54;80.58;94636.50;5016916;28;20187;-77
2024/01/06 08:18:05;;;;;;;2.63;1.80;;;;;;;4.65;80.30;94638.16;5015020;28;20211;-77
2024/01/06 08:20:31;;;;;;;4.60;2.13;;;;;;;4.78;79.94;94629.25;5017292;28;20189;-79
2024/01/06 08:22:56;;;;;;;10.37;4.73;;;;;;;4.82;79.95;94627.19;5016034;28;20550;-78
2024/01/06 08:25:21;;;;;;;26.60;13.00;;;;;;;4.88;79.75;94631.81;4999162;28;20181;-79
2024/01/06 08:27:47;;;;;;;26.10;12.53;;;;;;;4.94;79.71;94633.81;5012837;28;20198;-77
2024/01/06 08:30:12;;;;;;;50.03;21.40;;;;;;;4.89;79.64;94627.47;5013805;28;20179;-77
2024/01/06 08:32:38;;;;;;;35.13;19.97;;;;;;;4.93;80.14;94636.53;5010136;28;20194;-77
2024/01/06 08:35:04;;;;;;;6.60;3.43;;;;;;;4.88;79.98;94644.66;5015713;28;20178;-77
2024/01/06 08:37:30;;;;;;;2.47;1.90;;;;;;;4.90;80.10;94655.63;5017087;28;20291;-77
2024/01/06 08:39:55;;;;;;;3.50;2.70;;;;;;;4.90;80.42;94654.81;5013933;28;20203;-76
2024/01/06 08:42:20;;;;;;;6.10;4.07;;;;;;;4.89;80.82;94660.91;4997866;28;20182;-77
2024/01/06 08:44:47;;;;;;;4.43;3.80;;;;;;;4.81;80.89;94648.72;5013661;28;20182;-76
2024/01/06 08:47:12;;;;;;;2.27;2.07;;;;;;;4.84;80.79;94651.81;4993075;28;20226;-76
2024/01/06 08:49:37;;;;;;;2.37;2.17;;;;;;;4.82;81.12;94651.16;4978770;28;20202;-76
2024/01/06 08:52:03;;;;;;;5.77;1.70;;;;;;;4.83;81.27;94650.22;4992602;28;20187;-76
2024/01/06 08:54:29;;;;;;;3.40;1.87;;;;;;;4.73;81.61;94662.25;4996519;28;20232;-77
2024/01/06 08:56:54;;;;;;;2.10;1.90;;;;;;;4.62;82.82;94664.94;4979495;28;20200;-77
2024/01/06 08:59:20;;;;;;;2.93;1.70;;;;;;;4.74;82.08;94661.31;4996364;28;20209;-76
2024/01/06 09:01:45;;;;;;;5.57;2.27;;;;;;;4.82;82.44;94665.78;4998088;28;20213;-77
2024/01/06 09:04:12;;;;;;;2.60;2.33;;;;;;;4.83;82.10;94668.22;4982182;28;20701;-77
2024/01/06 09:06:38;;;;;;;2.40;1.70;;;;;;;4.82;82.54;94669.16;4997000;28;21440;-77
2024/01/06 09:09:03;;;;;;;2.70;1.80;;;;;;;4.81;83.01;94666.72;4979056;28;20206;-77
2024/01/06 09:11:29;;;;;;;1.93;1.60;;;;;;;4.64;84.38;94670.75;4993772;28;20192;-77
2024/01/06 09:13:54;;;;;;;4.33;2.27;;;;;;;4.75;84.51;94672.41;4978177;28;20196;-77
2024/01/06 09:16:20;;;;;;;6.13;2.77;;;;;;;4.92;84.26;94676.88;4996747;28;20183;-77
2024/01/06 09:18:45;;;;;;;3.90;2.57;;;;;;;4.96;84.28;94677.44;4995546;28;20211;-78
2024/01/06 09:21:10;;;;;;;2.87;2.43;;;;;;;4.96;84.36;94675.69;4996663;28;20207;-78
2024/01/06 09:23:36;;;;;;;3.40;2.37;;;;;;;4.80;85.46;94672.81;4999313;28;20222;-77
2024/01/06 09:26:01;;;;;;;4.00;2.60;;;;;;;4.82;85.74;94676.88;4978197;28;20215;-75
2024/01/06 09:28:27;;;;;;;3.77;2.47;;;;;;;4.91;85.60;94674.47;4995055;28;20222;-77
2024/01/06 09:30:55;;;;;;;2.10;1.90;;;;;;;4.83;85.93;94673.34;4975738;28;20532;-76
2024/01/06 09:33:21;;;;;;;3.83;2.40;;;;;;;5.01;85.06;94691.53;4978065;28;20284;-76
2024/01/06 09:35:46;;;;;;;2.77;1.93;;;;;;;5.04;85.13;94687.88;4989116;28;20269;-76
2024/01/06 09:38:12;;;;;;;2.40;2.00;;;;;;;5.06;84.96;94685.97;4995756;28;20215;-77
2024/01/06 09:40:43;;;;;;;2.53;2.13;;;;;;;4.94;85.66;94689.59;4993633;28;20439;-75
2024/01/06 09:43:09;;;;;;;2.97;2.33;;;;;;;4.74;86.87;94687.03;4993115;28;20196;-77
2024/01/06 09:45:34;;;;;;;3.40;2.33;;;;;;;4.99;86.05;94698.56;4993990;28;20246;-76
2024/01/06 09:48:10;;;;;;;6.50;4.17;;;;;;;4.95;86.23;94698.97;4978687;28;20214;-74
2024/01/06 09:50:35;;;;;;;7.23;5.27;;;;;;;5.06;85.68;94697.09;4991445;28;20210;-76
2024/01/06 09:53:05;;;;;;;3.83;3.30;;;;;;;5.18;85.70;94702.91;4991154;28;20187;-76
2024/01/06 09:55:31;;;;;;;2.67;2.10;;;;;;;5.32;85.08;94702.50;4993865;28;20191;-77
2024/01/06 09:57:56;;;;;;;4.07;2.43;;;;;;;5.28;84.99;94708.06;4979055;28;20226;-77
2024/01/06 10:00:22;;;;;;;6.00;3.40;;;;;;;5.12;85.04;94708.59;4993012;28;20200;-76
2024/01/06 10:02:48;;;;;;;6.47;3.83;;;;;;;5.18;84.70;94710.63;4978329;28;20285;-78
2024/01/06 10:05:16;;;;;;;5.07;3.27;;;;;;;5.22;84.77;94706.84;4978754;28;20191;-77
2024/01/06 10:07:43;;;;;;;6.03;3.77;;;;;;;5.29;84.59;94707.09;4995009;28;20206;-77
2024/01/06 10:10:10;;;;;;;6.80;4.77;;;;;;;5.22;84.81;94711.19;4977441;28;20200;-76
2024/01/06 10:12:37;;;;;;;4.03;2.77;;;;;;;5.19;85.31;94706.28;4995369;28;20270;-76
2024/01/06 10:15:03;;;;;;;2.53;2.13;;;;;;;5.29;84.87;94705.34;4993778;28;20191;-76
2024/01/06 10:17:28;;;;;;;2.80;2.40;;;;;;;5.39;84.58;94707.94;4992255;28;20219;-77
2024/01/06 10:19:54;;;;;;;2.90;1.87;;;;;;;5.21;85.47;94710.38;4975734;28;20283;-75
2024/01/06 10:22:19;;;;;;;3.70;2.33;;;;;;;5.17;85.48;94705.63;4995093;28;20245;-76
2024/01/06 10:24:46;;;;;;;3.97;2.50;;;;;;;5.21;85.80;94714.69;4996395;28;20275;-76
2024/01/06 10:27:11;;;;;;;3.50;3.00;;;;;;;5.21;85.40;94710.38;4975189;28;20238;-76
2024/01/06 10:29:37;;;;;;;5.33;3.67;;;;;;;5.19;86.00;94704.53;4998805;28;20191;-76
2024/01/06 10:32:02;;;;;;;5.63;3.97;;;;;;;5.13;86.31;94707.66;4993688;28;20180;-76
2024/01/06 10:34:28;;;;;;;4.63;2.87;;;;;;;5.28;86.08;94705.47;4980603;28;20200;-77
2024/01/06 10:36:54;;;;;;;6.30;3.63;;;;;;;5.21;86.17;94705.22;4993402;28;20285;-76
2024/01/06 10:39:20;;;;;;;3.43;2.80;;;;;;;5.33;85.89;94704.13;4997949;28;20680;-76
2024/01/06 10:41:49;;;;;;;3.47;2.63;;;;;;;5.29;85.97;94702.75;4977620;28;20200;-76
2024/01/06 10:44:15;;;;;;;2.40;2.20;;;;;;;5.24;85.90;94706.72;4995736;28;20191;-79
2024/01/06 10:46:41;;;;;;;2.57;2.00;;;;;;;5.27;86.29;94706.44;4997608;28;20274;-76
2024/01/06 10:49:10;;;;;;;4.57;2.67;;;;;;;5.23;86.58;94711.03;4979748;28;20261;-76
2024/01/06 10:51:37;;;;;;;2.90;2.70;;;;;;;5.13;86.79;94707.66;4994417;28;20190;-76
2024/01/06 10:54:02;;;;;;;4.50;3.07;;;;;;;5.18;86.72;94715.78;4997006;28;20231;-77
2024/01/06 10:56:29;;;;;;;4.03;3.70;;;;;;;5.06;87.16;94714.28;4996524;28;20618;-76
2024/01/06 10:58:56;;;;;;;3.67;2.40;;;;;;;5.23;86.29;94720.53;4996280;28;20281;-77
2024/01/06 11:01:24;;;;;;;3.60;2.50;;;;;;;5.10;86.54;94710.50;4978700;28;20201;-77
2024/01/06 11:03:49;;;;;;;2.70;2.50;;;;;;;5.08;86.36;94712.38;4982864;28;20191;-77
2024/01/06 11:06:17;;;;;;;3.67;2.63;;;;;;;5.00;87.03;94714.81;4978079;28;20553;-77
2024/01/06 11:08:54;;;;;;;3.33;2.37;;;;;;;5.13;86.69;94707.66;4978943;28;20215;-77
2024/01/06 11:11:20;;;;;;;3.27;2.77;;;;;;;5.07;86.54;94703.84;4994017;28;20266;-77
2024/01/06 11:13:47;;;;;;;2.40;2.20;;;;;;;5.20;86.75;94708.72;4981931;28;20192;-77
2024/01/06 11:16:33;;;;;;;2.83;2.50;;;;;;;5.21;86.93;94705.22;4978589;28;20192;-77
2024/01/06 11:18:59;;;;;;;3.37;3.07;;;;;;;5.16;87.06;94711.72;4977469;28;20219;-76
2024/01/06 11:21:27;;;;;;;3.10;2.80;;;;;;;5.26;87.30;94704.81;4979572;28;20234;-76
2024/01/06 11:24:09;;;;;;;4.07;3.23;;;;;;;5.40;86.90;94710.38;4981507;28;20179;-77
2024/01/06 11:26:38;;;;;;;3.07;2.67;;;;;;;5.45;86.67;94709.94;4994186;28;20179;-76
2024/01/06 11:29:04;;;;;;;2.80;2.60;;;;;;;5.43;86.39;94708.47;4991587;28;20204;-77
2024/01/06 11:31:32;;;;;;;4.00;3.33;;;;;;;5.53;86.74;94711.84;4995169;28;20184;-77
2024/01/06 11:34:12;;;;;;;3.70;3.40;;;;;;;5.46;86.46;94710.75;4994736;28;20250;-77